sensor_id;sensor_type;location;lat;lon;timestamp;pressure;altitude;pressure_sealevel;temperature;humidity
70976;BME280;58635;51.198;6.010;2023-02-10T00:01:24;103407.72;;;8.13;55.03
70976;BME280;58635;51.198;6.010;2023-02-10T00:03:50;103416.16;;;8.15;54.99
70976;BME280;58635;51.198;6.010;2023-02-10T00:06:17;103418.63;;;8.16;55.19
70976;BME280;58635;51.198;6.010;2023-02-10T00:08:46;103423.59;;;8.19;55.08
70976;BME280;58635;51.198;6.010;2023-02-10T00:11:12;103422.66;;;8.20;55.08
70976;BME280;58635;51.198;6.010;2023-02-10T00:13:38;103419.94;;;8.22;55.16
70976;BME280;58635;51.198;6.010;2023-02-10T00:16:06;103430.97;;;8.24;54.77
70976;BME280;58635;51.198;6.010;2023-02-10T00:18:32;103428.38;;;8.24;54.94
70976;BME280;58635;51.198;6.010;2023-02-10T00:21:14;103426.50;;;8.26;54.82
70976;BME280;58635;51.198;6.010;2023-02-10T00:23:40;103431.66;;;8.26;54.65
70976;BME280;58635;51.198;6.010;2023-02-10T00:26:08;103423.34;;;8.23;54.85
70976;BME280;58635;51.198;6.010;2023-02-10T00:28:34;103428.38;;;8.24;54.93
70976;BME280;58635;51.198;6.010;2023-02-10T00:31:08;103431.91;;;8.23;54.97
70976;BME280;58635;51.198;6.010;2023-02-10T00:33:34;103427.09;;;8.18;55.14
70976;BME280;58635;51.198;6.010;2023-02-10T00:36:04;103433.91;;;8.19;55.05
70976;BME280;58635;51.198;6.010;2023-02-10T00:38:30;103429.56;;;8.20;55.03
70976;BME280;58635;51.198;6.010;2023-02-10T00:40:55;103431.09;;;8.23;54.91
70976;BME280;58635;51.198;6.010;2023-02-10T00:43:20;103428.50;;;8.23;54.90
70976;BME280;58635;51.198;6.010;2023-02-10T00:45:46;103436.81;;;8.26;54.83
70976;BME280;58635;51.198;6.010;2023-02-10T00:48:11;103429.91;;;8.27;54.69
70976;BME280;58635;51.198;6.010;2023-02-10T00:50:36;103436.72;;;8.28;54.68
70976;BME280;58635;51.198;6.010;2023-02-10T00:53:02;103432.38;;;8.28;54.53
70976;BME280;58635;51.198;6.010;2023-02-10T00:55:27;103430.84;;;8.26;54.71
70976;BME280;58635;51.198;6.010;2023-02-10T00:57:53;103444.78;;;8.23;54.86
70976;BME280;58635;51.198;6.010;2023-02-10T01:00:18;103438.44;;;8.16;55.00
70976;BME280;58635;51.198;6.010;2023-02-10T01:02:43;103440.69;;;8.20;55.10
70976;BME280;58635;51.198;6.010;2023-02-10T01:05:09;103449.13;;;8.23;54.80
70976;BME280;58635;51.198;6.010;2023-02-10T01:07:34;103445.63;;;8.24;54.85
70976;BME280;58635;51.198;6.010;2023-02-10T01:09:59;103442.91;;;8.25;54.76
70976;BME280;58635;51.198;6.010;2023-02-10T01:12:25;103437.75;;;8.25;55.06
70976;BME280;58635;51.198;6.010;2023-02-10T01:14:50;103441.28;;;8.24;54.88
70976;BME280;58635;51.198;6.010;2023-02-10T01:17:15;103442.22;;;8.23;54.64
70976;BME280;58635;51.198;6.010;2023-02-10T01:19:41;103447.38;;;8.23;54.96
70976;BME280;58635;51.198;6.010;2023-02-10T01:22:06;103452.53;;;8.23;54.77
70976;BME280;58635;51.198;6.010;2023-02-10T01:24:32;103445.72;;;8.22;54.70
70976;BME280;58635;51.198;6.010;2023-02-10T01:26:57;103452.66;;;8.21;54.58
70976;BME280;58635;51.198;6.010;2023-02-10T01:29:22;103455.22;;;8.21;54.65
70976;BME280;58635;51.198;6.010;2023-02-10T01:31:48;103453.69;;;8.19;54.67
70976;BME280;58635;51.198;6.010;2023-02-10T01:34:13;103451.22;;;8.17;54.90
70976;BME280;58635;51.198;6.010;2023-02-10T01:36:39;103456.47;;;8.16;54.54
70976;BME280;58635;51.198;6.010;2023-02-10T01:39:04;103466.09;;;8.14;54.79
70976;BME280;58635;51.198;6.010;2023-02-10T01:41:29;103467.13;;;8.11;54.80
70976;BME280;58635;51.198;6.010;2023-02-10T01:45:10;103465.59;;;8.09;54.96
70976;BME280;58635;51.198;6.010;2023-02-10T01:46:51;103462.75;;;8.01;54.94
70976;BME280;58635;51.198;6.010;2023-02-10T01:49:19;103464.41;;;8.02;54.87
70976;BME280;58635;51.198;6.010;2023-02-10T01:54:18;103469.06;;;7.97;55.17
70976;BME280;58635;51.198;6.010;2023-02-10T01:56:46;103464.97;;;7.94;55.06
70976;BME280;58635;51.198;6.010;2023-02-10T01:59:13;103465.16;;;7.91;55.18
70976;BME280;58635;51.198;6.010;2023-02-10T02:01:39;103466.22;;;7.88;55.25
70976;BME280;58635;51.198;6.010;2023-02-10T02:04:04;103465.03;;;7.81;55.55
70976;BME280;58635;51.198;6.010;2023-02-10T02:06:31;103460.56;;;7.83;55.18
70976;BME280;58635;51.198;6.010;2023-02-10T02:08:57;103464.28;;;7.79;55.29
70976;BME280;58635;51.198;6.010;2023-02-10T02:27:37;103480.50;;;7.69;55.46
70976;BME280;58635;51.198;6.010;2023-02-10T02:31:06;103477.91;;;7.69;55.42
70976;BME280;58635;51.198;6.010;2023-02-10T02:36:21;103475.47;;;7.67;55.57
70976;BME280;58635;51.198;6.010;2023-02-10T02:38:50;103481.66;;;7.65;55.63
70976;BME280;58635;51.198;6.010;2023-02-10T02:41:23;103487.63;;;7.65;55.73
70976;BME280;58635;51.198;6.010;2023-02-10T02:43:49;103485.16;;;7.63;55.63
70976;BME280;58635;51.198;6.010;2023-02-10T02:49:34;103492.41;;;7.58;55.69
70976;BME280;58635;51.198;6.010;2023-02-10T02:52:11;103482.41;;;7.54;55.67
70976;BME280;58635;51.198;6.010;2023-02-10T02:54:49;103461.91;;;7.52;55.66
70976;BME280;58635;51.198;6.010;2023-02-10T02:57:25;103459.56;;;7.49;55.89
70976;BME280;58635;51.198;6.010;2023-02-10T03:00:02;103458.03;;;7.47;55.92
70976;BME280;58635;51.198;6.010;2023-02-10T03:02:31;103463.19;;;7.47;55.83
70976;BME280;58635;51.198;6.010;2023-02-10T03:04:58;103454.72;;;7.45;56.03
70976;BME280;58635;51.198;6.010;2023-02-10T03:07:24;103435.03;;;7.44;56.00
70976;BME280;58635;51.198;6.010;2023-02-10T03:09:49;103440.41;;;7.41;56.16
70976;BME280;58635;51.198;6.010;2023-02-10T03:12:14;103437.00;;;7.40;56.22
70976;BME280;58635;51.198;6.010;2023-02-10T03:14:40;103443.09;;;7.39;56.33
70976;BME280;58635;51.198;6.010;2023-02-10T03:17:05;103444.03;;;7.38;56.07
70976;BME280;58635;51.198;6.010;2023-02-10T03:19:31;103451.97;;;7.35;56.07
70976;BME280;58635;51.198;6.010;2023-02-10T03:21:56;103449.59;;;7.32;56.12
70976;BME280;58635;51.198;6.010;2023-02-10T03:24:22;103449.69;;;7.30;56.34
70976;BME280;58635;51.198;6.010;2023-02-10T03:26:47;103454.03;;;7.30;56.16
70976;BME280;58635;51.198;6.010;2023-02-10T03:29:14;103454.13;;;7.28;56.42
70976;BME280;58635;51.198;6.010;2023-02-10T03:31:40;103457.66;;;7.27;56.42
70976;BME280;58635;51.198;6.010;2023-02-10T03:34:06;103458.56;;;7.26;56.22
70976;BME280;58635;51.198;6.010;2023-02-10T03:36:31;103462.91;;;7.26;56.33
70976;BME280;58635;51.198;6.010;2023-02-10T03:38:59;103463.84;;;7.25;56.37
70976;BME280;58635;51.198;6.010;2023-02-10T03:41:24;103457.97;;;7.23;56.23
70976;BME280;58635;51.198;6.010;2023-02-10T03:43:50;103465.78;;;7.21;56.65
70976;BME280;58635;51.198;6.010;2023-02-10T03:46:15;103477.09;;;7.19;56.61
70976;BME280;58635;51.198;6.010;2023-02-10T03:48:40;103473.00;;;7.16;56.62
70976;BME280;58635;51.198;6.010;2023-02-10T03:51:07;103475.78;;;7.13;56.62
70976;BME280;58635;51.198;6.010;2023-02-10T03:53:32;103475.09;;;7.11;56.59
70976;BME280;58635;51.198;6.010;2023-02-10T03:55:58;103482.06;;;7.09;56.55
70976;BME280;58635;51.198;6.010;2023-02-10T03:58:24;103482.28;;;7.06;56.40
70976;BME280;58635;51.198;6.010;2023-02-10T04:00:50;103484.13;;;7.04;56.64
70976;BME280;58635;51.198;6.010;2023-02-10T04:03:16;103480.94;;;7.00;56.79
70976;BME280;58635;51.198;6.010;2023-02-10T04:05:41;103479.31;;;6.99;56.58
70976;BME280;58635;51.198;6.010;2023-02-10T04:08:07;103483.91;;;6.94;56.88
70976;BME280;58635;51.198;6.010;2023-02-10T04:10:32;103489.19;;;6.93;56.64
70976;BME280;58635;51.198;6.010;2023-02-10T04:12:58;103490.31;;;6.89;56.39
70976;BME280;58635;51.198;6.010;2023-02-10T04:15:23;103489.78;;;6.84;56.75
70976;BME280;58635;51.198;6.010;2023-02-10T04:17:49;103490.00;;;6.81;56.69
70976;BME280;58635;51.198;6.010;2023-02-10T04:20:14;103489.50;;;6.76;56.70
70976;BME280;58635;51.198;6.010;2023-02-10T04:22:40;103490.50;;;6.73;56.57
70976;BME280;58635;51.198;6.010;2023-02-10T04:25:06;103497.59;;;6.69;56.85
70976;BME280;58635;51.198;6.010;2023-02-10T04:27:32;103499.44;;;6.67;56.83
70976;BME280;58635;51.198;6.010;2023-02-10T04:29:57;103498.84;;;6.64;56.87
70976;BME280;58635;51.198;6.010;2023-02-10T04:32:23;103500.66;;;6.62;57.08
70976;BME280;58635;51.198;6.010;2023-02-10T04:34:48;103499.94;;;6.60;57.19
70976;BME280;58635;51.198;6.010;2023-02-10T04:37:14;103494.09;;;6.58;56.93
70976;BME280;58635;51.198;6.010;2023-02-10T04:39:39;103499.22;;;6.58;57.05
70976;BME280;58635;51.198;6.010;2023-02-10T04:42:05;103493.47;;;6.54;57.12
70976;BME280;58635;51.198;6.010;2023-02-10T04:44:30;103493.56;;;6.53;56.98
70976;BME280;58635;51.198;6.010;2023-02-10T04:46:56;103492.00;;;6.50;57.48
70976;BME280;58635;51.198;6.010;2023-02-10T04:49:21;103495.59;;;6.48;57.49
70976;BME280;58635;51.198;6.010;2023-02-10T04:51:46;103488.00;;;6.46;57.03
70976;BME280;58635;51.198;6.010;2023-02-10T04:54:12;103490.66;;;6.44;57.42
70976;BME280;58635;51.198;6.010;2023-02-10T04:56:38;103494.25;;;6.42;57.04
70976;BME280;58635;51.198;6.010;2023-02-10T04:59:04;103494.38;;;6.40;57.01
70976;BME280;58635;51.198;6.010;2023-02-10T05:01:29;103486.72;;;6.39;57.15
70976;BME280;58635;51.198;6.010;2023-02-10T05:03:55;103485.91;;;6.38;57.24
70976;BME280;58635;51.198;6.010;2023-02-10T05:06:20;103491.97;;;6.37;57.58
70976;BME280;58635;51.198;6.010;2023-02-10T05:08:45;103482.00;;;6.33;57.42
70976;BME280;58635;51.198;6.010;2023-02-10T05:11:13;103480.34;;;6.32;57.71
70976;BME280;58635;51.198;6.010;2023-02-10T05:13:39;103479.63;;;6.30;57.63
70976;BME280;58635;51.198;6.010;2023-02-10T05:16:08;103478.06;;;6.27;57.91
70976;BME280;58635;51.198;6.010;2023-02-10T05:18:34;103485.69;;;6.29;57.80
70976;BME280;58635;51.198;6.010;2023-02-10T05:21:00;103486.63;;;6.28;57.40
70976;BME280;58635;51.198;6.010;2023-02-10T05:23:27;103486.63;;;6.28;57.77
70976;BME280;58635;51.198;6.010;2023-02-10T05:25:53;103491.03;;;6.26;57.59
70976;BME280;58635;51.198;6.010;2023-02-10T05:28:18;103487.63;;;6.25;57.96
70976;BME280;58635;51.198;6.010;2023-02-10T05:30:44;103497.19;;;6.23;57.95
70976;BME280;58635;51.198;6.010;2023-02-10T05:33:09;103501.50;;;6.23;57.80
70976;BME280;58635;51.198;6.010;2023-02-10T05:35:34;103505.81;;;6.22;57.99
70976;BME280;58635;51.198;6.010;2023-02-10T05:38:00;103507.66;;;6.20;57.54
70976;BME280;58635;51.198;6.010;2023-02-10T05:40:30;103518.06;;;6.19;57.92
70976;BME280;58635;51.198;6.010;2023-02-10T05:42:56;103519.06;;;6.16;57.94
70976;BME280;58635;51.198;6.010;2023-02-10T05:45:21;103514.94;;;6.13;57.96
70976;BME280;58635;51.198;6.010;2023-02-10T05:47:47;103522.63;;;6.13;57.84
70976;BME280;58635;51.198;6.010;2023-02-10T05:50:13;103515.03;;;6.12;58.02
70976;BME280;58635;51.198;6.010;2023-02-10T05:52:39;103510.19;;;6.07;58.04
70976;BME280;58635;51.198;6.010;2023-02-10T05:55:05;103512.75;;;6.07;58.14
70976;BME280;58635;51.198;6.010;2023-02-10T05:57:30;103505.25;;;6.04;58.08
70976;BME280;58635;51.198;6.010;2023-02-10T05:59:56;103499.47;;;6.01;58.02
70976;BME280;58635;51.198;6.010;2023-02-10T06:02:21;103499.66;;;5.98;58.46
70976;BME280;58635;51.198;6.010;2023-02-10T06:04:47;103509.13;;;5.97;58.44
70976;BME280;58635;51.198;6.010;2023-02-10T06:07:12;103510.25;;;5.93;57.88
70976;BME280;58635;51.198;6.010;2023-02-10T06:09:38;103525.72;;;5.92;58.17
70976;BME280;58635;51.198;6.010;2023-02-10T06:12:05;103520.75;;;5.88;58.14
70976;BME280;58635;51.198;6.010;2023-02-10T06:14:30;103526.00;;;5.87;58.15
70976;BME280;58635;51.198;6.010;2023-02-10T06:16:56;103523.53;;;5.85;58.69
70976;BME280;58635;51.198;6.010;2023-02-10T06:19:21;103528.66;;;5.85;58.20
70976;BME280;58635;51.198;6.010;2023-02-10T06:21:46;103535.75;;;5.82;58.44
70976;BME280;58635;51.198;6.010;2023-02-10T06:24:12;103547.00;;;5.79;58.16
70976;BME280;58635;51.198;6.010;2023-02-10T06:26:37;103537.03;;;5.75;58.33
70976;BME280;58635;51.198;6.010;2023-02-10T06:29:03;103544.00;;;5.73;58.55
70976;BME280;58635;51.198;6.010;2023-02-10T06:31:28;103551.81;;;5.71;58.15
70976;BME280;58635;51.198;6.010;2023-02-10T06:33:53;103552.88;;;5.67;58.11
70976;BME280;58635;51.198;6.010;2023-02-10T06:36:19;103547.75;;;5.67;58.41
70976;BME280;58635;51.198;6.010;2023-02-10T06:38:44;103548.66;;;5.66;58.48
70976;BME280;58635;51.198;6.010;2023-02-10T06:41:10;103544.56;;;5.64;58.31
70976;BME280;58635;51.198;6.010;2023-02-10T06:43:35;103542.81;;;5.64;58.18
70976;BME280;58635;51.198;6.010;2023-02-10T06:46:01;103537.78;;;5.63;58.36
70976;BME280;58635;51.198;6.010;2023-02-10T06:48:26;103533.47;;;5.63;58.36
70976;BME280;58635;51.198;6.010;2023-02-10T06:50:52;103534.47;;;5.61;58.81
70976;BME280;58635;51.198;6.010;2023-02-10T06:53:18;103537.13;;;5.59;58.43
70976;BME280;58635;51.198;6.010;2023-02-10T06:55:43;103536.41;;;5.57;58.29
70976;BME280;58635;51.198;6.010;2023-02-10T06:58:09;103539.97;;;5.54;58.68
70976;BME280;58635;51.198;6.010;2023-02-10T07:00:35;103539.25;;;5.52;58.38
70976;BME280;58635;51.198;6.010;2023-02-10T07:03:00;103536.66;;;5.52;58.55
70976;BME280;58635;51.198;6.010;2023-02-10T07:05:26;103534.94;;;5.53;58.67
70976;BME280;58635;51.198;6.010;2023-02-10T07:07:51;103537.31;;;5.56;58.82
70976;BME280;58635;51.198;6.010;2023-02-10T07:10:19;103541.44;;;5.58;58.92
70976;BME280;58635;51.198;6.010;2023-02-10T07:12:45;103539.50;;;5.62;58.84
70976;BME280;58635;51.198;6.010;2023-02-10T07:15:13;103537.56;;;5.66;58.86
70976;BME280;58635;51.198;6.010;2023-02-10T07:17:38;103537.47;;;5.67;59.13
70976;BME280;58635;51.198;6.010;2023-02-10T07:20:05;103533.91;;;5.70;58.83
70976;BME280;58635;51.198;6.010;2023-02-10T07:22:30;103532.91;;;5.72;59.12
70976;BME280;58635;51.198;6.010;2023-02-10T07:24:56;103537.03;;;5.75;58.81
70976;BME280;58635;51.198;6.010;2023-02-10T07:27:22;103539.50;;;5.76;59.12
70976;BME280;58635;51.198;6.010;2023-02-10T07:29:47;103535.06;;;5.78;59.06
70976;BME280;58635;51.198;6.010;2023-02-10T07:32:14;103538.31;;;5.82;58.97
70976;BME280;58635;51.198;6.010;2023-02-10T07:34:39;103546.75;;;5.84;58.84
70976;BME280;58635;51.198;6.010;2023-02-10T07:37:06;103551.97;;;5.82;59.04
70976;BME280;58635;51.198;6.010;2023-02-10T07:39:32;103549.09;;;5.87;59.19
70976;BME280;58635;51.198;6.010;2023-02-10T07:41:57;103548.19;;;5.88;59.07
70976;BME280;58635;51.198;6.010;2023-02-10T07:44:23;103553.91;;;5.93;59.00
70976;BME280;58635;51.198;6.010;2023-02-10T07:46:50;103557.41;;;5.92;59.18
70976;BME280;58635;51.198;6.010;2023-02-10T07:49:16;103566.38;;;5.99;58.97
70976;BME280;58635;51.198;6.010;2023-02-10T07:51:41;103565.25;;;6.03;59.20
70976;BME280;58635;51.198;6.010;2023-02-10T07:54:08;103565.78;;;6.08;58.62
70976;BME280;58635;51.198;6.010;2023-02-10T07:56:33;103578.34;;;6.13;58.98
70976;BME280;58635;51.198;6.010;2023-02-10T07:58:59;103574.69;;;6.17;59.18
70976;BME280;58635;51.198;6.010;2023-02-10T08:01:24;103583.03;;;6.21;59.02
70976;BME280;58635;51.198;6.010;2023-02-10T08:03:50;103577.41;;;6.28;58.71
70976;BME280;58635;51.198;6.010;2023-02-10T08:06:23;103582.03;;;6.36;58.71
70976;BME280;58635;51.198;6.010;2023-02-10T08:08:49;103586.66;;;6.31;58.49
70976;BME280;58635;51.198;6.010;2023-02-10T08:11:15;103596.50;;;6.24;58.98
70976;BME280;58635;51.198;6.010;2023-02-10T08:13:40;103590.97;;;6.30;59.14
70976;BME280;58635;51.198;6.010;2023-02-10T08:16:07;103585.34;;;6.38;59.10
70976;BME280;58635;51.198;6.010;2023-02-10T08:18:39;103586.63;;;6.45;58.98
70976;BME280;58635;51.198;6.010;2023-02-10T08:21:04;103585.16;;;6.68;58.45
70976;BME280;58635;51.198;6.010;2023-02-10T08:23:30;103593.00;;;6.79;58.27
70976;BME280;58635;51.198;6.010;2023-02-10T08:25:56;103589.72;;;6.90;58.34
70976;BME280;58635;51.198;6.010;2023-02-10T08:28:22;103588.28;;;6.98;58.25
70976;BME280;58635;51.198;6.010;2023-02-10T08:30:48;103587.06;;;7.04;57.68
70976;BME280;58635;51.198;6.010;2023-02-10T08:33:13;103588.41;;;7.10;57.60
70976;BME280;58635;51.198;6.010;2023-02-10T08:35:39;103596.66;;;7.15;57.56
70976;BME280;58635;51.198;6.010;2023-02-10T08:38:06;103591.78;;;7.10;57.62
70976;BME280;58635;51.198;6.010;2023-02-10T08:40:32;103597.25;;;7.18;57.38
70976;BME280;58635;51.198;6.010;2023-02-10T08:42:58;103582.53;;;7.20;57.62
70976;BME280;58635;51.198;6.010;2023-02-10T08:45:23;103596.88;;;7.24;57.42
70976;BME280;58635;51.198;6.010;2023-02-10T08:47:49;103595.00;;;7.26;57.32
70976;BME280;58635;51.198;6.010;2023-02-10T08:50:14;103596.56;;;7.29;57.29
70976;BME280;58635;51.198;6.010;2023-02-10T08:52:39;103595.63;;;7.30;57.36
70976;BME280;58635;51.198;6.010;2023-02-10T08:55:05;103602.94;;;7.23;57.49
70976;BME280;58635;51.198;6.010;2023-02-10T08:57:32;103594.19;;;7.13;57.56
70976;BME280;58635;51.198;6.010;2023-02-10T08:59:58;103596.94;;;7.10;57.73
70976;BME280;58635;51.198;6.010;2023-02-10T09:02:24;103605.50;;;7.11;58.06
70976;BME280;58635;51.198;6.010;2023-02-10T09:04:49;103602.94;;;7.11;58.18
70976;BME280;58635;51.198;6.010;2023-02-10T09:07:14;103604.75;;;7.09;58.25
70976;BME280;58635;51.198;6.010;2023-02-10T09:09:41;103608.09;;;7.11;58.06
70976;BME280;58635;51.198;6.010;2023-02-10T09:12:09;103604.28;;;7.16;58.00
70976;BME280;58635;51.198;6.010;2023-02-10T09:14:37;103606.53;;;7.21;58.05
70976;BME280;58635;51.198;6.010;2023-02-10T09:17:02;103603.56;;;7.27;57.97
70976;BME280;58635;51.198;6.010;2023-02-10T09:19:28;103603.25;;;7.31;57.86
70976;BME280;58635;51.198;6.010;2023-02-10T09:21:53;103609.03;;;7.35;57.48
70976;BME280;58635;51.198;6.010;2023-02-10T09:24:21;103604.59;;;7.37;57.74
70976;BME280;58635;51.198;6.010;2023-02-10T09:26:46;103612.22;;;7.39;57.62
70976;BME280;58635;51.198;6.010;2023-02-10T09:29:12;103609.75;;;7.37;57.65
70976;BME280;58635;51.198;6.010;2023-02-10T09:31:37;103606.84;;;7.42;57.84
70976;BME280;58635;51.198;6.010;2023-02-10T09:34:03;103592.53;;;7.38;57.80
70976;BME280;58635;51.198;6.010;2023-02-10T09:36:29;103600.38;;;7.36;57.89
70976;BME280;58635;51.198;6.010;2023-02-10T09:38:55;103596.97;;;7.36;57.61
70976;BME280;58635;51.198;6.010;2023-02-10T09:52:04;103585.97;;;7.46;57.90
70976;BME280;58635;51.198;6.010;2023-02-10T09:54:32;103593.03;;;7.55;57.40
70976;BME280;58635;51.198;6.010;2023-02-10T09:57:11;103602.22;;;7.59;57.32
70976;BME280;58635;51.198;6.010;2023-02-10T09:59:38;103598.72;;;7.60;57.32
70976;BME280;58635;51.198;6.010;2023-02-10T10:02:18;103589.13;;;7.62;57.54
70976;BME280;58635;51.198;6.010;2023-02-10T10:04:46;103593.34;;;7.63;57.51
70976;BME280;58635;51.198;6.010;2023-02-10T10:07:28;103602.38;;;7.69;57.58
70976;BME280;58635;51.198;6.010;2023-02-10T10:10:02;103603.13;;;7.71;57.67
70976;BME280;58635;51.198;6.010;2023-02-10T10:12:29;103599.09;;;7.67;57.66
70976;BME280;58635;51.198;6.010;2023-02-10T10:14:55;103609.53;;;7.53;58.32
70976;BME280;58635;51.198;6.010;2023-02-10T10:20:39;103608.00;;;7.50;58.67
70976;BME280;58635;51.198;6.010;2023-02-10T10:23:15;103606.44;;;7.73;58.11
70976;BME280;58635;51.198;6.010;2023-02-10T10:26:04;103614.03;;;7.87;57.93
70976;BME280;58635;51.198;6.010;2023-02-10T10:31:31;103611.84;;;7.94;58.06
70976;BME280;58635;51.198;6.010;2023-02-10T10:39:29;103605.09;;;8.04;58.35
70976;BME280;58635;51.198;6.010;2023-02-10T10:41:58;103607.38;;;8.09;58.11
70976;BME280;58635;51.198;6.010;2023-02-10T10:44:26;103615.41;;;8.17;58.05
70976;BME280;58635;51.198;6.010;2023-02-10T10:47:12;103614.03;;;8.24;58.31
70976;BME280;58635;51.198;6.010;2023-02-10T10:49:40;103608.44;;;8.30;58.24
70976;BME280;58635;51.198;6.010;2023-02-10T10:52:26;103611.63;;;8.34;58.32
70976;BME280;58635;51.198;6.010;2023-02-10T10:54:53;103607.09;;;8.37;58.24
70976;BME280;58635;51.198;6.010;2023-02-10T10:57:18;103608.31;;;8.44;58.18
70976;BME280;58635;51.198;6.010;2023-02-10T10:59:49;103596.72;;;8.50;58.23
70976;BME280;58635;51.198;6.010;2023-02-10T11:02:21;103606.59;;;8.56;58.15
70976;BME280;58635;51.198;6.010;2023-02-10T11:05:03;103603.69;;;8.61;58.28
70976;BME280;58635;51.198;6.010;2023-02-10T11:07:31;103599.75;;;8.68;58.27
70976;BME280;58635;51.198;6.010;2023-02-10T11:09:58;103596.69;;;8.74;58.26
70976;BME280;58635;51.198;6.010;2023-02-10T11:12:31;103587.69;;;8.79;58.20
70976;BME280;58635;51.198;6.010;2023-02-10T11:14:58;103583.81;;;8.85;58.09
70976;BME280;58635;51.198;6.010;2023-02-10T11:17:25;103581.75;;;8.90;58.00
70976;BME280;58635;51.198;6.010;2023-02-10T11:20:00;103582.91;;;8.97;58.10
70976;BME280;58635;51.198;6.010;2023-02-10T11:22:26;103580.00;;;9.02;57.94
70976;BME280;58635;51.198;6.010;2023-02-10T11:24:55;103584.59;;;9.09;57.99
70976;BME280;58635;51.198;6.010;2023-02-10T11:27:21;103580.75;;;9.15;57.82
70976;BME280;58635;51.198;6.010;2023-02-10T11:29:58;103576.84;;;9.21;57.73
70976;BME280;58635;51.198;6.010;2023-02-10T11:32:33;103575.78;;;9.23;57.64
70976;BME280;58635;51.198;6.010;2023-02-10T11:35:01;103569.34;;;9.29;57.54
70976;BME280;58635;51.198;6.010;2023-02-10T11:39:54;103572.41;;;9.34;57.51
70976;BME280;58635;51.198;6.010;2023-02-10T11:42:26;103565.84;;;9.41;57.34
70976;BME280;58635;51.198;6.010;2023-02-10T11:47:23;103569.50;;;9.50;57.07
70976;BME280;58635;51.198;6.010;2023-02-10T11:49:49;103556.31;;;9.53;56.92
70976;BME280;58635;51.198;6.010;2023-02-10T11:52:17;103555.13;;;9.57;56.64
70976;BME280;58635;51.198;6.010;2023-02-10T11:54:44;103553.38;;;9.57;56.11
70976;BME280;58635;51.198;6.010;2023-02-10T11:57:33;103544.22;;;9.64;56.30
70976;BME280;58635;51.198;6.010;2023-02-10T12:08:38;103536.06;;;9.80;55.41
70976;BME280;58635;51.198;6.010;2023-02-10T12:11:13;103534.78;;;9.86;55.36
70976;BME280;58635;51.198;6.010;2023-02-10T12:16:36;103519.38;;;9.95;54.76
70976;BME280;58635;51.198;6.010;2023-02-10T12:19:16;103521.22;;;10.05;54.74
70976;BME280;58635;51.198;6.010;2023-02-10T12:21:55;103523.19;;;10.12;54.62
70976;BME280;58635;51.198;6.010;2023-02-10T12:26:56;103515.75;;;10.30;53.70
70976;BME280;58635;51.198;6.010;2023-02-10T12:29:43;103513.47;;;10.37;53.51
70976;BME280;58635;51.198;6.010;2023-02-10T12:32:47;103499.78;;;10.46;53.27
70976;BME280;58635;51.198;6.010;2023-02-10T12:35:42;103504.91;;;10.57;52.77
70976;BME280;58635;51.198;6.010;2023-02-10T12:46:36;103488.84;;;10.84;52.12
70976;BME280;58635;51.198;6.010;2023-02-10T12:49:17;103474.56;;;10.90;52.01
70976;BME280;58635;51.198;6.010;2023-02-10T12:52:05;103483.91;;;11.02;51.77
70976;BME280;58635;51.198;6.010;2023-02-10T12:57:05;103475.63;;;11.18;51.46
70976;BME280;58635;51.198;6.010;2023-02-10T12:59:48;103481.00;;;11.26;50.97
70976;BME280;58635;51.198;6.010;2023-02-10T13:02:23;103476.22;;;11.31;50.93
70976;BME280;58635;51.198;6.010;2023-02-10T13:04:55;103486.06;;;11.37;50.75
70976;BME280;58635;51.198;6.010;2023-02-10T13:12:50;103472.28;;;11.46;50.39
70976;BME280;58635;51.198;6.010;2023-02-10T13:15:32;103468.91;;;11.55;49.81
70976;BME280;58635;51.198;6.010;2023-02-10T13:18:00;103467.13;;;11.56;49.64
70976;BME280;58635;51.198;6.010;2023-02-10T13:20:48;103476.28;;;11.60;49.08
70976;BME280;58635;51.198;6.010;2023-02-10T13:34:23;103448.06;;;11.76;48.31
70976;BME280;58635;51.198;6.010;2023-02-10T13:36:57;103449.56;;;11.79;48.31
70976;BME280;58635;51.198;6.010;2023-02-10T13:39:25;103447.53;;;11.82;48.23
70976;BME280;58635;51.198;6.010;2023-02-10T13:42:07;103441.97;;;11.87;47.79
70976;BME280;58635;51.198;6.010;2023-02-10T13:44:34;103441.81;;;11.88;48.15
70976;BME280;58635;51.198;6.010;2023-02-10T13:47:11;103437.84;;;11.94;47.69
70976;BME280;58635;51.198;6.010;2023-02-10T13:49:50;103425.69;;;11.94;47.67
70976;BME280;58635;51.198;6.010;2023-02-10T13:52:26;103414.09;;;11.98;47.90
70976;BME280;58635;51.198;6.010;2023-02-10T13:54:56;103414.91;;;11.99;47.29
70976;BME280;58635;51.198;6.010;2023-02-10T14:00:45;103422.28;;;11.94;47.76
70976;BME280;58635;51.198;6.010;2023-02-10T14:05:49;103419.53;;;11.95;47.84
70976;BME280;58635;51.198;6.010;2023-02-10T14:08:36;103413.53;;;11.95;47.64
70976;BME280;58635;51.198;6.010;2023-02-10T14:13:33;103427.59;;;11.92;47.56
70976;BME280;58635;51.198;6.010;2023-02-10T14:16:27;103424.47;;;11.89;47.80
70976;BME280;58635;51.198;6.010;2023-02-10T14:19:30;103432.25;;;11.89;48.06
70976;BME280;58635;51.198;6.010;2023-02-10T14:21:57;103438.94;;;11.91;47.86
70976;BME280;58635;51.198;6.010;2023-02-10T14:24:28;103432.94;;;11.91;47.88
70976;BME280;58635;51.198;6.010;2023-02-10T14:26:56;103435.81;;;11.97;48.10
70976;BME280;58635;51.198;6.010;2023-02-10T14:29:23;103437.84;;;12.04;47.68
70976;BME280;58635;51.198;6.010;2023-02-10T14:31:56;103434.03;;;12.08;47.81
70976;BME280;58635;51.198;6.010;2023-02-10T14:34:27;103426.13;;;12.09;47.74
70976;BME280;58635;51.198;6.010;2023-02-10T14:39:26;103411.22;;;12.21;47.68
70976;BME280;58635;51.198;6.010;2023-02-10T14:41:54;103414.88;;;12.28;47.62
70976;BME280;58635;51.198;6.010;2023-02-10T14:44:37;103413.34;;;12.35;47.40
70976;BME280;58635;51.198;6.010;2023-02-10T14:47:04;103408.44;;;12.32;47.76
70976;BME280;58635;51.198;6.010;2023-02-10T14:49:30;103407.19;;;12.36;47.70
70976;BME280;58635;51.198;6.010;2023-02-10T14:52:01;103415.00;;;12.36;47.73